sensor_id;sensor_type;location;lat;lon;timestamp;pressure;altitude;pressure_sealevel;temperature;humidity
66524;BME280;53350;52.210;5.160;2022-10-31T00:00:26;102088.38;;;14.62;74.40
66524;BME280;53350;52.210;5.160;2022-10-31T00:02:52;102093.56;;;14.62;74.64
66524;BME280;53350;52.210;5.160;2022-10-31T00:05:20;102093.53;;;14.60;74.75
66524;BME280;53350;52.210;5.160;2022-10-31T00:07:47;102094.38;;;14.60;74.66
66524;BME280;53350;52.210;5.160;2022-10-31T00:10:13;102088.38;;;14.58;74.77
66524;BME280;53350;52.210;5.160;2022-10-31T00:12:40;102090.94;;;14.60;74.76
66524;BME280;53350;52.210;5.160;2022-10-31T00:15:06;102087.50;;;14.58;74.63
66524;BME280;53350;52.210;5.160;2022-10-31T00:17:34;102097.00;;;14.59;74.86
66524;BME280;53350;52.210;5.160;2022-10-31T00:20:01;102097.00;;;14.59;74.76
66524;BME280;53350;52.210;5.160;2022-10-31T00:22:29;102103.91;;;14.60;74.94
66524;BME280;53350;52.210;5.160;2022-10-31T00:24:55;102099.59;;;14.59;74.73
66524;BME280;53350;52.210;5.160;2022-10-31T00:27:21;102096.13;;;14.60;74.69
66524;BME280;53350;52.210;5.160;2022-10-31T00:29:48;102102.19;;;14.59;74.77
66524;BME280;53350;52.210;5.160;2022-10-31T00:32:14;102104.78;;;14.57;74.67
66524;BME280;53350;52.210;5.160;2022-10-31T00:34:41;102101.31;;;14.57;74.84
66524;BME280;53350;52.210;5.160;2022-10-31T00:37:07;102109.97;;;14.57;74.65
66524;BME280;53350;52.210;5.160;2022-10-31T00:39:35;102101.34;;;14.55;74.59
66524;BME280;53350;52.210;5.160;2022-10-31T00:42:01;102097.03;;;14.54;74.66
66524;BME280;53350;52.210;5.160;2022-10-31T00:44:28;102100.50;;;14.53;74.88
66524;BME280;53350;52.210;5.160;2022-10-31T00:46:54;102106.56;;;14.52;74.56
66524;BME280;53350;52.210;5.160;2022-10-31T00:49:20;102109.16;;;14.51;74.76
66524;BME280;53350;52.210;5.160;2022-10-31T00:51:47;102109.16;;;14.49;74.73
66524;BME280;53350;52.210;5.160;2022-10-31T00:54:13;102108.34;;;14.47;74.83
66524;BME280;53350;52.210;5.160;2022-10-31T00:56:41;102106.59;;;14.46;74.84
66524;BME280;53350;52.210;5.160;2022-10-31T00:59:07;102110.97;;;14.44;74.78
66524;BME280;53350;52.210;5.160;2022-10-31T01:01:34;102113.56;;;14.44;74.72
66524;BME280;53350;52.210;5.160;2022-10-31T01:04:00;102105.78;;;14.42;74.62
66524;BME280;53350;52.210;5.160;2022-10-31T01:06:26;102107.53;;;14.39;74.58
66524;BME280;53350;52.210;5.160;2022-10-31T01:08:53;102105.81;;;14.38;74.47
66524;BME280;53350;52.210;5.160;2022-10-31T01:11:21;102117.06;;;14.37;74.35
66524;BME280;53350;52.210;5.160;2022-10-31T01:13:50;102107.56;;;14.34;73.93
66524;BME280;53350;52.210;5.160;2022-10-31T01:16:18;102117.06;;;14.32;74.40
66524;BME280;53350;52.210;5.160;2022-10-31T01:18:46;102105.88;;;14.30;74.57
66524;BME280;53350;52.210;5.160;2022-10-31T01:21:14;102097.25;;;14.30;74.27
66524;BME280;53350;52.210;5.160;2022-10-31T01:23:41;102098.94;;;14.29;74.43
66524;BME280;53350;52.210;5.160;2022-10-31T01:26:09;102092.97;;;14.24;74.59
66524;BME280;53350;52.210;5.160;2022-10-31T01:28:38;102093.78;;;14.27;74.53
66524;BME280;53350;52.210;5.160;2022-10-31T01:31:08;102087.75;;;14.25;74.71
66524;BME280;53350;52.210;5.160;2022-10-31T01:33:35;102081.69;;;14.25;74.65
66524;BME280;53350;52.210;5.160;2022-10-31T01:36:11;102076.53;;;14.22;74.49
66524;BME280;53350;52.210;5.160;2022-10-31T01:38:38;102084.28;;;14.25;74.81
66524;BME280;53350;52.210;5.160;2022-10-31T01:41:04;102087.78;;;14.24;74.83
66524;BME280;53350;52.210;5.160;2022-10-31T01:43:45;102088.63;;;14.23;74.61
66524;BME280;53350;52.210;5.160;2022-10-31T01:46:15;102074.84;;;14.21;74.54
66524;BME280;53350;52.210;5.160;2022-10-31T01:48:43;102072.28;;;14.19;74.46
66524;BME280;53350;52.210;5.160;2022-10-31T01:51:11;102075.75;;;14.17;74.58
66524;BME280;53350;52.210;5.160;2022-10-31T01:53:39;102080.06;;;14.13;74.15
66524;BME280;53350;52.210;5.160;2022-10-31T01:56:07;102070.56;;;14.11;74.15
66524;BME280;53350;52.210;5.160;2022-10-31T01:58:33;102068.91;;;14.08;74.18
66524;BME280;53350;52.210;5.160;2022-10-31T02:01:01;102074.09;;;14.05;73.98
66524;BME280;53350;52.210;5.160;2022-10-31T02:03:30;102067.22;;;14.01;74.07
66524;BME280;53350;52.210;5.160;2022-10-31T02:05:57;102068.09;;;13.97;74.07
66524;BME280;53350;52.210;5.160;2022-10-31T02:08:27;102056.09;;;13.83;73.94
66524;BME280;53350;52.210;5.160;2022-10-31T02:10:54;102068.16;;;13.90;73.84
66524;BME280;53350;52.210;5.160;2022-10-31T02:13:22;102061.25;;;13.86;73.90
66524;BME280;53350;52.210;5.160;2022-10-31T02:15:50;102069.03;;;13.86;74.00
66524;BME280;53350;52.210;5.160;2022-10-31T02:18:18;102073.34;;;13.83;74.05
66524;BME280;53350;52.210;5.160;2022-10-31T02:20:55;102069.09;;;13.80;74.04
66524;BME280;53350;52.210;5.160;2022-10-31T02:23:47;102082.00;;;13.79;73.99
66524;BME280;53350;52.210;5.160;2022-10-31T02:32:28;102072.56;;;13.68;73.92
66524;BME280;53350;52.210;5.160;2022-10-31T02:34:58;102070.88;;;13.69;74.20
66524;BME280;53350;52.210;5.160;2022-10-31T02:37:34;102051.94;;;13.54;74.15
66524;BME280;53350;52.210;5.160;2022-10-31T02:40:09;102063.13;;;13.61;74.06
66524;BME280;53350;52.210;5.160;2022-10-31T02:42:46;102070.03;;;13.61;73.92
66524;BME280;53350;52.210;5.160;2022-10-31T02:45:21;102064.88;;;13.59;74.11
66524;BME280;53350;52.210;5.160;2022-10-31T02:47:53;102084.75;;;13.57;74.09
66524;BME280;53350;52.210;5.160;2022-10-31T02:50:24;102071.78;;;13.54;73.90
66524;BME280;53350;52.210;5.160;2022-10-31T02:52:53;102072.69;;;13.47;74.04
66524;BME280;53350;52.210;5.160;2022-10-31T02:55:49;102077.00;;;13.48;73.76
66524;BME280;53350;52.210;5.160;2022-10-31T02:58:20;102075.28;;;13.44;74.07
66524;BME280;53350;52.210;5.160;2022-10-31T03:03:37;102077.03;;;13.42;73.80
66524;BME280;53350;52.210;5.160;2022-10-31T03:06:11;102074.47;;;13.37;73.88
66524;BME280;53350;52.210;5.160;2022-10-31T03:08:44;102064.06;;;13.32;73.78
66524;BME280;53350;52.210;5.160;2022-10-31T03:11:16;102058.94;;;13.23;74.05
66524;BME280;53350;52.210;5.160;2022-10-31T03:13:48;102079.63;;;13.31;73.97
66524;BME280;53350;52.210;5.160;2022-10-31T03:16:18;102071.00;;;13.29;73.84
66524;BME280;53350;52.210;5.160;2022-10-31T03:18:53;102084.81;;;13.26;73.70
66524;BME280;53350;52.210;5.160;2022-10-31T03:21:25;102083.09;;;13.23;73.81
66524;BME280;53350;52.210;5.160;2022-10-31T03:23:54;102083.09;;;13.20;73.75
66524;BME280;53350;52.210;5.160;2022-10-31T03:26:23;102076.22;;;13.19;73.71
66524;BME280;53350;52.210;5.160;2022-10-31T03:28:53;102078.81;;;13.18;73.70
66524;BME280;53350;52.210;5.160;2022-10-31T03:31:23;102077.94;;;13.16;73.64
66524;BME280;53350;52.210;5.160;2022-10-31T03:33:56;102077.97;;;13.13;73.71
66524;BME280;53350;52.210;5.160;2022-10-31T03:36:26;102073.66;;;13.10;73.73
66524;BME280;53350;52.210;5.160;2022-10-31T03:38:55;102078.84;;;13.09;73.91
66524;BME280;53350;52.210;5.160;2022-10-31T03:41:25;102089.19;;;13.07;74.15
66524;BME280;53350;52.210;5.160;2022-10-31T03:43:57;102081.44;;;13.07;74.66
66524;BME280;53350;52.210;5.160;2022-10-31T03:46:27;102083.16;;;13.08;74.50
66524;BME280;53350;52.210;5.160;2022-10-31T03:48:55;102088.34;;;13.08;74.85
66524;BME280;53350;52.210;5.160;2022-10-31T03:51:25;102085.75;;;13.08;74.85
66524;BME280;53350;52.210;5.160;2022-10-31T03:53:55;102057.31;;;12.93;74.75
66524;BME280;53350;52.210;5.160;2022-10-31T03:56:30;102082.28;;;13.06;74.79
66524;BME280;53350;52.210;5.160;2022-10-31T03:59:03;102088.34;;;13.08;75.00
66524;BME280;53350;52.210;5.160;2022-10-31T04:01:34;102093.50;;;13.08;75.24
66524;BME280;53350;52.210;5.160;2022-10-31T04:04:05;102096.09;;;13.07;75.15
66524;BME280;53350;52.210;5.160;2022-10-31T04:06:34;102084.03;;;13.05;75.51
66524;BME280;53350;52.210;5.160;2022-10-31T04:09:04;102090.91;;;13.07;75.17
66524;BME280;53350;52.210;5.160;2022-10-31T04:11:34;102086.59;;;13.07;75.30
66524;BME280;53350;52.210;5.160;2022-10-31T04:14:04;102084.88;;;13.08;75.49
66524;BME280;53350;52.210;5.160;2022-10-31T04:16:31;102088.34;;;13.08;75.43
66524;BME280;53350;52.210;5.160;2022-10-31T04:18:58;102083.16;;;13.08;75.49
66524;BME280;53350;52.210;5.160;2022-10-31T04:21:30;102082.28;;;13.06;75.75
66524;BME280;53350;52.210;5.160;2022-10-31T04:23:56;102070.22;;;13.08;75.59
66524;BME280;53350;52.210;5.160;2022-10-31T04:26:23;102077.09;;;13.08;75.62
66524;BME280;53350;52.210;5.160;2022-10-31T04:28:50;102078.00;;;13.07;75.79
66524;BME280;53350;52.210;5.160;2022-10-31T04:31:16;102071.94;;;13.06;76.07
66524;BME280;53350;52.210;5.160;2022-10-31T04:33:43;102074.53;;;13.06;75.91
66524;BME280;53350;52.210;5.160;2022-10-31T04:36:09;102071.09;;;13.05;76.13
66524;BME280;53350;52.210;5.160;2022-10-31T04:38:37;102077.09;;;13.06;76.04
66524;BME280;53350;52.210;5.160;2022-10-31T04:41:03;102084.00;;;13.07;75.91
66524;BME280;53350;52.210;5.160;2022-10-31T04:43:30;102081.44;;;13.05;76.01
66524;BME280;53350;52.210;5.160;2022-10-31T04:45:56;102096.94;;;13.07;76.02
66524;BME280;53350;52.210;5.160;2022-10-31T04:48:23;102090.91;;;13.07;75.89
66524;BME280;53350;52.210;5.160;2022-10-31T04:50:49;102082.28;;;13.04;75.89
66524;BME280;53350;52.210;5.160;2022-10-31T04:53:15;102079.69;;;13.04;75.82
66524;BME280;53350;52.210;5.160;2022-10-31T04:55:43;102081.44;;;13.02;75.91
66524;BME280;53350;52.210;5.160;2022-10-31T04:58:09;102077.97;;;13.02;76.05
66524;BME280;53350;52.210;5.160;2022-10-31T05:00:36;102082.31;;;13.01;75.96
66524;BME280;53350;52.210;5.160;2022-10-31T05:03:02;102078.88;;;13.01;75.76
66524;BME280;53350;52.210;5.160;2022-10-31T05:05:30;102074.53;;;13.00;75.98
66524;BME280;53350;52.210;5.160;2022-10-31T05:07:57;102087.47;;;13.00;76.01
66524;BME280;53350;52.210;5.160;2022-10-31T05:10:26;102074.56;;;12.98;75.96
66524;BME280;53350;52.210;5.160;2022-10-31T05:12:55;102078.88;;;12.96;75.92
66524;BME280;53350;52.210;5.160;2022-10-31T05:15:23;102070.25;;;12.91;76.06
66524;BME280;53350;52.210;5.160;2022-10-31T05:17:50;102083.19;;;12.93;76.13
66524;BME280;53350;52.210;5.160;2022-10-31T05:20:18;102078.88;;;12.90;75.98
66524;BME280;53350;52.210;5.160;2022-10-31T05:22:46;102078.03;;;12.88;75.85
66524;BME280;53350;52.210;5.160;2022-10-31T05:25:13;102071.97;;;12.84;75.94
66524;BME280;53350;52.210;5.160;2022-10-31T05:27:40;102066.81;;;12.80;75.94
66524;BME280;53350;52.210;5.160;2022-10-31T05:30:10;102065.97;;;12.79;75.97
66524;BME280;53350;52.210;5.160;2022-10-31T05:32:37;102066.81;;;12.81;76.13
66524;BME280;53350;52.210;5.160;2022-10-31T05:35:06;102063.38;;;12.81;76.13
66524;BME280;53350;52.210;5.160;2022-10-31T05:37:33;102060.81;;;12.81;76.24
66524;BME280;53350;52.210;5.160;2022-10-31T05:39:59;102059.06;;;12.83;76.25
66524;BME280;53350;52.210;5.160;2022-10-31T05:42:26;102051.28;;;12.84;76.69
66524;BME280;53350;52.210;5.160;2022-10-31T05:44:52;102044.41;;;12.85;76.82
66524;BME280;53350;52.210;5.160;2022-10-31T05:47:20;102043.53;;;12.86;76.87
66524;BME280;53350;52.210;5.160;2022-10-31T05:49:46;102048.72;;;12.86;76.66
66524;BME280;53350;52.210;5.160;2022-10-31T05:52:13;102042.69;;;12.85;76.66
66524;BME280;53350;52.210;5.160;2022-10-31T05:54:40;102038.38;;;12.84;76.38
66524;BME280;53350;52.210;5.160;2022-10-31T05:57:06;102030.63;;;12.81;76.35
66524;BME280;53350;52.210;5.160;2022-10-31T05:59:32;102038.38;;;12.80;76.42
66524;BME280;53350;52.210;5.160;2022-10-31T06:01:59;102041.84;;;12.80;76.65
66524;BME280;53350;52.210;5.160;2022-10-31T06:04:27;102037.53;;;12.79;76.66
66524;BME280;53350;52.210;5.160;2022-10-31T06:06:54;102035.81;;;12.78;76.98
66524;BME280;53350;52.210;5.160;2022-10-31T06:09:20;102036.66;;;12.79;77.21
66524;BME280;53350;52.210;5.160;2022-10-31T06:11:47;102039.25;;;12.79;77.45
66524;BME280;53350;52.210;5.160;2022-10-31T06:14:13;102035.81;;;12.80;77.68
66524;BME280;53350;52.210;5.160;2022-10-31T06:16:39;102047.03;;;12.80;77.82
66524;BME280;53350;52.210;5.160;2022-10-31T06:19:06;102031.50;;;12.82;78.11
66524;BME280;53350;52.210;5.160;2022-10-31T06:21:34;102040.09;;;12.82;78.10
66524;BME280;53350;52.210;5.160;2022-10-31T06:24:00;102040.09;;;12.82;78.42
66524;BME280;53350;52.210;5.160;2022-10-31T06:26:27;102031.50;;;12.82;78.44
66524;BME280;53350;52.210;5.160;2022-10-31T06:28:53;102035.78;;;12.84;78.59
66524;BME280;53350;52.210;5.160;2022-10-31T06:31:19;102034.06;;;12.85;78.72
66524;BME280;53350;52.210;5.160;2022-10-31T06:33:46;102040.94;;;12.84;78.68
66524;BME280;53350;52.210;5.160;2022-10-31T06:36:12;102056.47;;;12.86;78.54
66524;BME280;53350;52.210;5.160;2022-10-31T06:38:40;102044.41;;;12.85;78.69
66524;BME280;53350;52.210;5.160;2022-10-31T06:41:07;102051.28;;;12.86;78.51
66524;BME280;53350;52.210;5.160;2022-10-31T06:43:33;102055.59;;;12.87;78.66
66524;BME280;53350;52.210;5.160;2022-10-31T06:46:02;102053.03;;;12.87;78.89
66524;BME280;53350;52.210;5.160;2022-10-31T06:48:28;102056.50;;;12.87;78.79
66524;BME280;53350;52.210;5.160;2022-10-31T06:50:57;102053.00;;;12.88;78.89
66524;BME280;53350;52.210;5.160;2022-10-31T06:53:23;102058.19;;;12.88;78.78
66524;BME280;53350;52.210;5.160;2022-10-31T06:55:51;102053.91;;;12.87;78.78
66524;BME280;53350;52.210;5.160;2022-10-31T06:58:18;102055.63;;;12.85;78.67
66524;BME280;53350;52.210;5.160;2022-10-31T07:00:44;102060.78;;;12.85;78.81
66524;BME280;53350;52.210;5.160;2022-10-31T07:03:12;102057.34;;;12.85;78.50
66524;BME280;53350;52.210;5.160;2022-10-31T07:05:39;102058.19;;;12.85;79.07
66524;BME280;53350;52.210;5.160;2022-10-31T07:08:07;102040.13;;;12.73;78.98
66524;BME280;53350;52.210;5.160;2022-10-31T07:10:35;102059.06;;;12.91;79.16
66524;BME280;53350;52.210;5.160;2022-10-31T07:13:05;102059.91;;;12.93;79.13
66524;BME280;53350;52.210;5.160;2022-10-31T07:15:34;102061.63;;;12.94;79.17
66524;BME280;53350;52.210;5.160;2022-10-31T07:18:01;102065.06;;;12.96;79.07
66524;BME280;53350;52.210;5.160;2022-10-31T07:20:28;102045.25;;;12.88;78.82
66524;BME280;53350;52.210;5.160;2022-10-31T07:22:54;102067.63;;;13.00;79.21
66524;BME280;53350;52.210;5.160;2022-10-31T07:25:21;102068.50;;;13.02;79.19
66524;BME280;53350;52.210;5.160;2022-10-31T07:27:48;102073.69;;;13.02;78.99
66524;BME280;53350;52.210;5.160;2022-10-31T07:30:16;102072.81;;;13.05;79.03
66524;BME280;53350;52.210;5.160;2022-10-31T07:32:44;102071.06;;;13.09;79.16
66524;BME280;53350;52.210;5.160;2022-10-31T07:35:13;102079.69;;;13.12;79.03
66524;BME280;53350;52.210;5.160;2022-10-31T07:37:40;102069.34;;;13.11;78.63
66524;BME280;53350;52.210;5.160;2022-10-31T07:40:08;102067.63;;;13.13;79.04
66524;BME280;53350;52.210;5.160;2022-10-31T07:42:35;102071.91;;;13.20;79.00
66524;BME280;53350;52.210;5.160;2022-10-31T07:45:02;102069.31;;;13.23;78.94
66524;BME280;53350;52.210;5.160;2022-10-31T07:47:30;102067.56;;;13.23;78.85
66524;BME280;53350;52.210;5.160;2022-10-31T07:49:56;102075.34;;;13.28;78.78
66524;BME280;53350;52.210;5.160;2022-10-31T07:52:22;102082.19;;;13.31;78.52
66524;BME280;53350;52.210;5.160;2022-10-31T07:54:50;102078.75;;;13.33;78.66
66524;BME280;53350;52.210;5.160;2022-10-31T07:57:16;102078.75;;;13.36;79.06
66524;BME280;53350;52.210;5.160;2022-10-31T07:59:43;102083.94;;;13.35;78.98
66524;BME280;53350;52.210;5.160;2022-10-31T08:02:09;102081.34;;;13.36;79.40
66524;BME280;53350;52.210;5.160;2022-10-31T08:04:37;102086.53;;;13.38;79.21
66524;BME280;53350;52.210;5.160;2022-10-31T08:07:03;102091.69;;;13.39;79.31
66524;BME280;53350;52.210;5.160;2022-10-31T08:09:30;102096.84;;;13.41;79.32
66524;BME280;53350;52.210;5.160;2022-10-31T08:11:56;102089.09;;;13.46;79.32
66524;BME280;53350;52.210;5.160;2022-10-31T08:14:23;102086.50;;;13.49;79.52
66524;BME280;53350;52.210;5.160;2022-10-31T08:16:49;102095.94;;;13.56;79.32
66524;BME280;53350;52.210;5.160;2022-10-31T08:19:16;102092.47;;;13.62;79.29
66524;BME280;53350;52.210;5.160;2022-10-31T08:21:43;102082.94;;;13.67;79.29
66524;BME280;53350;52.210;5.160;2022-10-31T08:24:10;102087.22;;;13.72;79.47
66524;BME280;53350;52.210;5.160;2022-10-31T08:26:36;102096.72;;;13.77;79.47
66524;BME280;53350;52.210;5.160;2022-10-31T08:29:04;102089.78;;;13.79;78.96
66524;BME280;53350;52.210;5.160;2022-10-31T08:31:30;102091.53;;;13.78;78.42
66524;BME280;53350;52.210;5.160;2022-10-31T08:33:56;102081.16;;;13.80;79.05
66524;BME280;53350;52.210;5.160;2022-10-31T08:36:23;102077.69;;;13.82;79.30
66524;BME280;53350;52.210;5.160;2022-10-31T08:38:51;102066.44;;;13.88;79.40
66524;BME280;53350;52.210;5.160;2022-10-31T08:41:17;102074.13;;;13.97;79.29
66524;BME280;53350;52.210;5.160;2022-10-31T08:43:44;102067.19;;;14.04;79.30
66524;BME280;53350;52.210;5.160;2022-10-31T08:46:10;102061.97;;;14.10;79.35
66524;BME280;53350;52.210;5.160;2022-10-31T08:48:37;102063.69;;;14.13;79.13
66524;BME280;53350;52.210;5.160;2022-10-31T08:51:03;102065.38;;;14.15;79.06
66524;BME280;53350;52.210;5.160;2022-10-31T08:53:30;102059.28;;;14.18;79.19
66524;BME280;53350;52.210;5.160;2022-10-31T08:55:58;102067.91;;;14.24;79.47
66524;BME280;53350;52.210;5.160;2022-10-31T08:58:24;102054.91;;;14.29;79.48
66524;BME280;53350;52.210;5.160;2022-10-31T09:00:52;102045.38;;;14.33;79.50
66524;BME280;53350;52.210;5.160;2022-10-31T09:03:21;102033.34;;;14.25;79.58
66524;BME280;53350;52.210;5.160;2022-10-31T09:05:48;102039.28;;;14.38;79.45
66524;BME280;53350;52.210;5.160;2022-10-31T09:08:16;102033.19;;;14.39;79.80
66524;BME280;53350;52.210;5.160;2022-10-31T09:10:43;102044.38;;;14.48;79.79
66524;BME280;53350;52.210;5.160;2022-10-31T09:13:13;102047.81;;;14.51;80.17
66524;BME280;53350;52.210;5.160;2022-10-31T09:15:41;102042.56;;;14.57;80.14
66524;BME280;53350;52.210;5.160;2022-10-31T09:18:09;102042.53;;;14.64;80.09
66524;BME280;53350;52.210;5.160;2022-10-31T09:20:37;102033.81;;;14.69;80.16
66524;BME280;53350;52.210;5.160;2022-10-31T09:23:05;102034.63;;;14.76;80.32
66524;BME280;53350;52.210;5.160;2022-10-31T09:25:33;102032.00;;;14.79;80.27
66524;BME280;53350;52.210;5.160;2022-10-31T09:28:00;102030.19;;;14.84;80.40
66524;BME280;53350;52.210;5.160;2022-10-31T09:30:30;102022.38;;;14.89;80.39
66524;BME280;53350;52.210;5.160;2022-10-31T09:32:59;102020.66;;;14.88;80.58
66524;BME280;53350;52.210;5.160;2022-10-31T09:35:25;102023.16;;;14.95;80.69
66524;BME280;53350;52.210;5.160;2022-10-31T09:37:56;102024.84;;;15.00;80.62
66524;BME280;53350;52.210;5.160;2022-10-31T09:40:25;102013.56;;;15.04;80.97
66524;BME280;53350;52.210;5.160;2022-10-31T09:43:00;102011.78;;;15.07;80.93
66524;BME280;53350;52.210;5.160;2022-10-31T09:45:36;102010.88;;;15.11;80.95
66524;BME280;53350;52.210;5.160;2022-10-31T09:48:17;102013.38;;;15.18;80.76
66524;BME280;53350;52.210;5.160;2022-10-31T09:50:51;102009.84;;;15.23;80.85
66524;BME280;53350;52.210;5.160;2022-10-31T09:53:25;102009.78;;;15.29;81.04
66524;BME280;53350;52.210;5.160;2022-10-31T09:55:54;102003.63;;;15.37;80.92
66524;BME280;53350;52.210;5.160;2022-10-31T09:58:24;102000.94;;;15.43;80.64
66524;BME280;53350;52.210;5.160;2022-10-31T10:00:54;101992.16;;;15.52;81.22
66524;BME280;53350;52.210;5.160;2022-10-31T10:03:29;101990.38;;;15.55;80.89
66524;BME280;53350;52.210;5.160;2022-10-31T10:06:04;101989.38;;;15.62;80.90
66524;BME280;53350;52.210;5.160;2022-10-31T10:08:33;101988.44;;;15.68;80.65
66524;BME280;53350;52.210;5.160;2022-10-31T10:11:15;101978.84;;;15.73;80.75
66524;BME280;53350;52.210;5.160;2022-10-31T10:13:57;101984.84;;;15.78;80.49
66524;BME280;53350;52.210;5.160;2022-10-31T10:16:41;101975.25;;;15.84;80.43
66524;BME280;53350;52.210;5.160;2022-10-31T10:19:21;101976.94;;;15.88;80.23
66524;BME280;53350;52.210;5.160;2022-10-31T10:21:56;101976.88;;;15.91;80.05
66524;BME280;53350;52.210;5.160;2022-10-31T10:24:33;101971.72;;;15.89;80.00
66524;BME280;53350;52.210;5.160;2022-10-31T10:27:11;101975.03;;;15.97;79.86
66524;BME280;53350;52.210;5.160;2022-10-31T10:29:45;101955.22;;;15.92;79.82
66524;BME280;53350;52.210;5.160;2022-10-31T10:32:19;101978.31;;;16.07;79.83
66524;BME280;53350;52.210;5.160;2022-10-31T10:34:50;101967.84;;;16.12;79.66
66524;BME280;53350;52.210;5.160;2022-10-31T10:37:24;101966.03;;;16.17;79.35
66524;BME280;53350;52.210;5.160;2022-10-31T10:39:56;101955.53;;;16.22;79.04
66524;BME280;53350;52.210;5.160;2022-10-31T10:42:26;101962.38;;;16.27;79.08
66524;BME280;53350;52.210;5.160;2022-10-31T10:45:15;101948.44;;;16.31;78.47
66524;BME280;53350;52.210;5.160;2022-10-31T10:48:10;101945.63;;;16.42;78.06
66524;BME280;53350;52.210;5.160;2022-10-31T10:50:41;101927.38;;;16.47;77.75
66524;BME280;53350;52.210;5.160;2022-10-31T10:53:22;101932.38;;;16.56;77.01
66524;BME280;53350;52.210;5.160;2022-10-31T10:56:00;101920.22;;;16.57;77.30
66524;BME280;53350;52.210;5.160;2022-10-31T10:58:28;101920.91;;;16.65;76.90
66524;BME280;53350;52.210;5.160;2022-10-31T11:00:54;101908.66;;;16.72;76.50
66524;BME280;53350;52.210;5.160;2022-10-31T11:03:23;101899.00;;;16.77;76.25
66524;BME280;53350;52.210;5.160;2022-10-31T11:05:51;101874.00;;;16.69;76.23
66524;BME280;53350;52.210;5.160;2022-10-31T11:08:28;101889.25;;;16.88;75.57
66524;BME280;53350;52.210;5.160;2022-10-31T11:10:59;101885.66;;;16.94;74.85
66524;BME280;53350;52.210;5.160;2022-10-31T11:13:27;101885.66;;;16.94;74.49
66524;BME280;53350;52.210;5.160;2022-10-31T11:16:00;101876.09;;;16.94;74.26
66524;BME280;53350;52.210;5.160;2022-10-31T11:18:30;101862.22;;;16.94;74.20
66524;BME280;53350;52.210;5.160;2022-10-31T11:20:58;101860.47;;;16.94;73.95
66524;BME280;53350;52.210;5.160;2022-10-31T11:23:26;101848.31;;;16.96;74.10
66524;BME280;53350;52.210;5.160;2022-10-31T11:25:55;101852.59;;;16.97;73.89
66524;BME280;53350;52.210;5.160;2022-10-31T11:28:22;101860.41;;;16.97;74.16
66524;BME280;53350;52.210;5.160;2022-10-31T11:30:52;101849.31;;;16.89;74.10
66524;BME280;53350;52.210;5.160;2022-10-31T11:33:24;101871.56;;;17.02;74.40
66524;BME280;53350;52.210;5.160;2022-10-31T11:35:54;101861.09;;;17.06;74.49
66524;BME280;53350;52.210;5.160;2022-10-31T11:38:24;101855.78;;;17.10;74.36
66524;BME280;53350;52.210;5.160;2022-10-31T11:40:59;101857.50;;;17.11;74.54
66524;BME280;53350;52.210;5.160;2022-10-31T11:43:26;101857.34;;;17.17;74.61
66524;BME280;53350;52.210;5.160;2022-10-31T11:45:53;101849.44;;;17.22;74.56
66524;BME280;53350;52.210;5.160;2022-10-31T11:48:21;101853.66;;;17.26;74.60
66524;BME280;53350;52.210;5.160;2022-10-31T11:50:50;101848.38;;;17.31;74.13
66524;BME280;53350;52.210;5.160;2022-10-31T11:53:27;101844.84;;;17.32;74.54
66524;BME280;53350;52.210;5.160;2022-10-31T11:56:04;101827.41;;;17.35;74.40
66524;BME280;53350;52.210;5.160;2022-10-31T11:58:30;101821.25;;;17.40;74.12
66524;BME280;53350;52.210;5.160;2022-10-31T12:00:58;101819.44;;;17.42;73.85
66524;BME280;53350;52.210;5.160;2022-10-31T12:03:36;101774.63;;;17.29;74.42
66524;BME280;53350;52.210;5.160;2022-10-31T12:06:15;101790.78;;;17.42;73.79
66524;BME280;53350;52.210;5.160;2022-10-31T12:08:45;101788.19;;;17.42;73.69
66524;BME280;53350;52.210;5.160;2022-10-31T12:11:28;101776.91;;;17.41;73.79
66524;BME280;53350;52.210;5.160;2022-10-31T12:14:08;101773.34;;;17.44;73.65
66524;BME280;53350;52.210;5.160;2022-10-31T12:16:46;101766.38;;;17.46;73.67
66524;BME280;53350;52.210;5.160;2022-10-31T12:19:20;101774.94;;;17.49;73.72
66524;BME280;53350;52.210;5.160;2022-10-31T12:22:02;101760.38;;;17.42;74.19
66524;BME280;53350;52.210;5.160;2022-10-31T12:24:45;101773.00;;;17.58;74.02
66524;BME280;53350;52.210;5.160;2022-10-31T12:27:27;101759.84;;;17.62;74.26
66524;BME280;53350;52.210;5.160;2022-10-31T12:30:08;101751.00;;;17.68;73.83
66524;BME280;53350;52.210;5.160;2022-10-31T12:32:46;101726.91;;;17.61;73.85
66524;BME280;53350;52.210;5.160;2022-10-31T12:35:30;101738.59;;;17.78;73.40
66524;BME280;53350;52.210;5.160;2022-10-31T12:38:18;101729.00;;;17.78;73.68
66524;BME280;53350;52.210;5.160;2022-10-31T12:40:59;101735.09;;;17.79;73.44
66524;BME280;53350;52.210;5.160;2022-10-31T12:43:39;101734.88;;;17.86;73.33
66524;BME280;53350;52.210;5.160;2022-10-31T12:46:13;101710.47;;;17.90;73.19
66524;BME280;53350;52.210;5.160;2022-10-31T12:48:51;101706.91;;;17.93;73.08
66524;BME280;53350;52.210;5.160;2022-10-31T12:51:29;101690.41;;;17.93;72.82
66524;BME280;53350;52.210;5.160;2022-10-31T12:54:14;101695.66;;;17.91;72.89
66524;BME280;53350;52.210;5.160;2022-10-31T12:56:53;101681.84;;;17.87;73.34
66524;BME280;53350;52.210;5.160;2022-10-31T12:59:29;101685.03;;;17.99;72.92
66524;BME280;53350;52.210;5.160;2022-10-31T13:02:00;101679.63;;;18.05;72.61
66524;BME280;53350;52.210;5.160;2022-10-31T13:04:36;101658.19;;;17.95;72.05
66524;BME280;53350;52.210;5.160;2022-10-31T13:07:09;101664.03;;;18.03;72.19
66524;BME280;53350;52.210;5.160;2022-10-31T13:09:42;101643.53;;;17.91;71.98
66524;BME280;53350;52.210;5.160;2022-10-31T13:12:15;101653.81;;;17.96;71.85